Time;durP1;ratioP1;P1;durP2;ratioP2;P2;SDS_P1;SDS_P2;PMS_P1;PMS_P2;Temp;Humidity;BMP_temperature;BMP_pressure;BME280_temperature;BME280_humidity;BME280_pressure;Samples;Min_cycle;Max_cycle;Signal;HPM_P1;HPM_P2
2023/11/09 00:00:18;;;;;;;5.40;2.17;;;7.60;64.40;;;;;;5094283;28;20115;-75
2023/11/09 00:02:45;;;;;;;3.47;2.15;;;7.60;64.40;;;;;;5094210;28;20081;-74
2023/11/09 00:05:11;;;;;;;3.40;2.10;;;7.60;64.50;;;;;;5094240;28;20474;-74
2023/11/09 00:07:37;;;;;;;5.93;2.20;;;7.50;64.50;;;;;;5094140;28;20016;-74
2023/11/09 00:10:05;;;;;;;3.70;2.05;;;7.50;64.70;;;;;;5094136;28;20106;-75
2023/11/09 00:12:32;;;;;;;2.33;2.13;;;7.50;64.70;;;;;;5092925;28;20345;-75
2023/11/09 00:14:58;;;;;;;5.10;2.80;;;7.50;64.90;;;;;;5093943;28;20048;-74
2023/11/09 00:17:24;;;;;;;7.25;2.33;;;7.50;64.80;;;;;;5094042;28;20036;-74
2023/11/09 00:19:49;;;;;;;3.42;2.13;;;7.40;65.10;;;;;;5092605;28;20374;-78
2023/11/09 00:22:15;;;;;;;3.40;2.28;;;7.40;65.50;;;;;;5093974;28;20456;-77
2023/11/09 00:24:41;;;;;;;5.45;2.58;;;7.40;65.60;;;;;;5093816;28;20028;-75
2023/11/09 00:27:06;;;;;;;3.50;2.40;;;7.40;65.80;;;;;;5093792;28;20024;-75
2023/11/09 00:29:34;;;;;;;4.50;2.20;;;7.40;65.90;;;;;;5093721;28;20571;-76
2023/11/09 00:32:00;;;;;;;4.40;2.72;;;7.40;65.90;;;;;;5093713;28;20069;-76
2023/11/09 00:34:26;;;;;;;4.30;2.33;;;7.40;65.70;;;;;;5093680;28;20028;-75
2023/11/09 00:36:52;;;;;;;4.32;2.08;;;7.30;65.80;;;;;;5093753;28;20074;-75
2023/11/09 00:39:20;;;;;;;5.03;2.47;;;7.20;66.10;;;;;;5093569;28;20097;-75
2023/11/09 00:41:45;;;;;;;4.20;2.40;;;7.30;66.10;;;;;;5093534;28;20019;-77
2023/11/09 00:44:11;;;;;;;3.78;2.30;;;7.30;66.40;;;;;;5093562;28;20039;-76
2023/11/09 00:46:37;;;;;;;4.25;2.28;;;7.30;66.60;;;;;;5093394;28;20024;-76
2023/11/09 00:49:03;;;;;;;3.50;1.95;;;7.30;66.80;;;;;;5093215;28;20732;-75
2023/11/09 00:51:29;;;;;;;3.42;2.33;;;7.20;66.70;;;;;;5093379;28;20020;-75
2023/11/09 00:53:54;;;;;;;4.03;2.50;;;7.20;66.80;;;;;;5093162;28;20024;-76
2023/11/09 00:56:21;;;;;;;4.45;2.50;;;7.20;66.80;;;;;;5093378;28;20068;-76
2023/11/09 00:58:46;;;;;;;3.33;2.47;;;7.20;66.60;;;;;;5093230;28;20020;-77
2023/11/09 01:01:12;;;;;;;5.45;2.47;;;7.20;66.70;;;;;;5091963;28;20035;-77
2023/11/09 01:03:37;;;;;;;3.10;2.33;;;7.20;66.60;;;;;;5093136;28;20031;-76
2023/11/09 01:06:05;;;;;;;2.85;1.90;;;7.20;66.50;;;;;;5093291;28;20082;-78
2023/11/09 01:08:32;;;;;;;3.58;2.35;;;7.20;66.20;;;;;;5093149;28;20039;-77
2023/11/09 01:10:58;;;;;;;2.08;1.65;;;7.20;66.20;;;;;;5092883;28;20031;-77
2023/11/09 01:13:23;;;;;;;4.60;2.20;;;7.20;66.30;;;;;;5092992;28;20020;-77
2023/11/09 01:15:49;;;;;;;3.03;2.17;;;7.20;65.90;;;;;;5092927;28;20028;-77
2023/11/09 01:18:14;;;;;;;4.78;2.13;;;7.20;65.90;;;;;;5092930;28;20094;-76
2023/11/09 01:20:40;;;;;;;3.38;1.80;;;7.20;65.50;;;;;;5092978;28;20055;-77
2023/11/09 01:23:07;;;;;;;3.10;1.92;;;7.20;65.70;;;;;;5092982;28;20077;-78
2023/11/09 01:25:33;;;;;;;3.30;2.55;;;7.20;65.70;;;;;;5092971;28;20103;-77
2023/11/09 01:28:01;;;;;;;3.97;2.22;;;7.20;66.00;;;;;;5092762;28;20109;-77
2023/11/09 01:30:26;;;;;;;7.45;2.38;;;7.10;66.00;;;;;;5091654;28;20031;-78
2023/11/09 01:32:52;;;;;;;3.13;2.25;;;7.10;66.10;;;;;;5093022;28;20016;-79
2023/11/09 01:35:17;;;;;;;4.70;2.08;;;7.10;66.00;;;;;;5092861;28;20028;-78
2023/11/09 01:37:43;;;;;;;5.00;2.38;;;7.00;66.00;;;;;;5092994;28;20031;-78
2023/11/09 01:40:10;;;;;;;3.65;2.40;;;7.10;66.40;;;;;;5092800;28;20043;-79
2023/11/09 01:42:36;;;;;;;2.40;2.20;;;7.10;66.10;;;;;;5092747;28;20476;-78
2023/11/09 01:45:05;;;;;;;2.95;2.05;;;7.10;66.20;;;;;;5092886;28;20107;-77
2023/11/09 01:47:32;;;;;;;5.10;2.05;;;7.10;66.30;;;;;;5092908;28;20017;-78
2023/11/09 01:49:57;;;;;;;4.00;1.70;;;7.10;66.10;;;;;;5092822;28;20020;-78
2023/11/09 01:52:23;;;;;;;4.22;2.08;;;7.10;65.70;;;;;;5092664;28;20077;-78
2023/11/09 01:54:49;;;;;;;3.65;1.50;;;7.10;65.80;;;;;;5092720;28;20097;-78
2023/11/09 01:57:14;;;;;;;3.15;1.92;;;7.20;65.40;;;;;;5092616;28;20031;-77
2023/11/09 01:59:44;;;;;;;5.50;1.83;;;7.10;65.10;;;;;;5092688;28;20043;-78
2023/11/09 02:02:09;;;;;;;3.60;2.10;;;7.20;65.20;;;;;;5096717;28;20081;-78
2023/11/09 02:04:35;;;;;;;1.98;1.60;;;7.10;65.00;;;;;;5096662;28;20024;-79
2023/11/09 02:07:01;;;;;;;3.05;1.95;;;7.20;65.00;;;;;;5096487;28;20016;-79
2023/11/09 02:09:30;;;;;;;3.78;1.83;;;7.20;65.10;;;;;;5096567;28;20407;-78
2023/11/09 02:11:56;;;;;;;4.53;2.30;;;7.20;65.40;;;;;;5096454;28;20476;-77
2023/11/09 02:14:22;;;;;;;3.88;1.95;;;7.10;65.50;;;;;;5096420;28;20028;-78
2023/11/09 02:16:48;;;;;;;3.17;1.83;;;7.10;65.30;;;;;;5096402;28;20427;-78
2023/11/09 02:19:20;;;;;;;2.42;1.70;;;7.20;65.30;;;;;;5096413;28;20472;-77
2023/11/09 02:21:47;;;;;;;3.75;2.00;;;7.20;65.40;;;;;;5096619;28;20387;-78
2023/11/09 02:24:13;;;;;;;4.20;1.90;;;7.20;65.40;;;;;;5096290;28;20024;-78
2023/11/09 02:26:39;;;;;;;3.30;1.80;;;7.20;65.40;;;;;;5096273;28;20070;-79
2023/11/09 02:29:05;;;;;;;5.38;2.10;;;7.10;65.50;;;;;;5094900;28;20396;-78
2023/11/09 02:31:31;;;;;;;5.07;2.05;;;7.10;65.50;;;;;;5096205;28;20020;-78
2023/11/09 02:33:57;;;;;;;7.25;1.98;;;7.20;64.60;;;;;;5095846;28;20024;-77
2023/11/09 02:36:24;;;;;;;3.85;2.17;;;7.20;64.80;;;;;;5095885;28;20122;-77
2023/11/09 02:38:50;;;;;;;4.22;2.08;;;7.30;63.60;;;;;;5096039;28;20024;-77
2023/11/09 02:41:15;;;;;;;2.13;1.73;;;7.40;61.80;;;;;;5095905;28;20024;-76
2023/11/09 02:43:43;;;;;;;3.85;2.08;;;7.50;61.10;;;;;;5095931;28;20028;-76
2023/11/09 02:46:11;;;;;;;4.47;1.75;;;7.70;60.80;;;;;;5095953;28;20016;-75
2023/11/09 02:48:40;;;;;;;3.42;1.92;;;7.70;59.80;;;;;;5095676;28;20016;-75
2023/11/09 02:51:09;;;;;;;3.83;2.00;;;7.80;59.40;;;;;;5095692;28;20109;-76
2023/11/09 02:53:36;;;;;;;3.10;1.80;;;7.80;59.10;;;;;;5095801;28;20069;-75
2023/11/09 02:56:02;;;;;;;2.42;1.85;;;7.90;59.40;;;;;;5095740;28;20028;-74
2023/11/09 02:58:29;;;;;;;3.90;2.00;;;8.00;58.50;;;;;;5095702;28;20082;-75
2023/11/09 03:00:54;;;;;;;3.83;1.55;;;8.00;58.40;;;;;;5095583;28;20032;-76
2023/11/09 03:03:20;;;;;;;6.68;1.42;;;8.00;58.70;;;;;;5096458;28;20123;-76
2023/11/09 03:05:46;;;;;;;5.00;1.77;;;8.00;58.50;;;;;;5095551;28;20032;-76
2023/11/09 03:08:11;;;;;;;4.53;1.77;;;8.00;58.50;;;;;;5095914;28;20032;-76
2023/11/09 03:10:37;;;;;;;2.70;1.52;;;8.00;58.30;;;;;;5100637;28;20020;-76
2023/11/09 03:13:02;;;;;;;3.25;1.80;;;8.00;58.90;;;;;;5095523;28;20027;-76
2023/11/09 03:15:28;;;;;;;4.82;1.60;;;7.90;58.70;;;;;;5095356;28;20057;-75
2023/11/09 03:17:54;;;;;;;3.47;1.80;;;8.00;58.20;;;;;;5095267;28;20032;-75
2023/11/09 03:20:22;;;;;;;2.45;1.70;;;8.00;58.60;;;;;;5095368;28;20032;-76
2023/11/09 03:22:48;;;;;;;2.70;1.45;;;8.10;56.00;;;;;;5095174;28;20020;-75
2023/11/09 03:25:13;;;;;;;2.25;1.50;;;8.20;55.80;;;;;;5095013;28;20502;-76
2023/11/09 03:27:39;;;;;;;2.80;1.40;;;8.20;55.30;;;;;;5078207;28;20390;-75
2023/11/09 03:30:05;;;;;;;1.90;1.27;;;8.30;55.90;;;;;;5074840;28;20029;-76
2023/11/09 03:32:31;;;;;;;4.50;1.52;;;8.30;55.00;;;;;;5074468;28;20035;-77
2023/11/09 03:34:57;;;;;;;2.58;1.50;;;8.30;54.80;;;;;;5074755;28;20424;-77
2023/11/09 03:37:22;;;;;;;5.45;1.52;;;8.30;55.40;;;;;;5074646;28;20025;-76
2023/11/09 03:39:48;;;;;;;5.18;1.77;;;8.30;55.50;;;;;;5074616;28;20090;-77
2023/11/09 03:42:15;;;;;;;4.30;2.00;;;8.30;56.30;;;;;;5074526;28;20149;-76
2023/11/09 03:44:42;;;;;;;4.22;2.00;;;8.20;56.90;;;;;;5074577;28;20436;-77
2023/11/09 03:47:07;;;;;;;5.60;1.88;;;8.20;57.50;;;;;;5074439;28;20017;-76
2023/11/09 03:49:39;;;;;;;4.05;2.10;;;8.10;58.10;;;;;;5074396;28;20031;-75
2023/11/09 03:52:05;;;;;;;3.42;1.88;;;8.00;58.70;;;;;;5074514;28;20021;-75
2023/11/09 03:54:30;;;;;;;2.70;1.88;;;8.00;59.40;;;;;;5074414;28;20047;-75
2023/11/09 03:56:56;;;;;;;2.63;1.58;;;7.90;59.70;;;;;;5074331;28;20059;-76
2023/11/09 03:59:21;;;;;;;3.08;2.03;;;7.80;59.70;;;;;;5074141;28;20043;-76
2023/11/09 04:01:47;;;;;;;3.28;1.90;;;7.80;59.40;;;;;;5074192;28;20032;-75
2023/11/09 04:04:14;;;;;;;3.75;1.88;;;7.80;59.50;;;;;;5074211;28;20032;-77
2023/11/09 04:06:40;;;;;;;2.35;1.77;;;7.80;59.20;;;;;;5074164;28;20027;-76
2023/11/09 04:09:07;;;;;;;2.83;1.98;;;7.80;59.10;;;;;;5072634;28;20113;-76
2023/11/09 04:11:33;;;;;;;2.53;1.95;;;7.90;59.30;;;;;;5074001;28;20021;-76
2023/11/09 04:13:59;;;;;;;3.72;2.03;;;7.80;58.90;;;;;;5073968;28;20024;-75
2023/11/09 04:16:25;;;;;;;2.90;1.83;;;7.80;58.30;;;;;;5073904;28;20380;-75
2023/11/09 04:18:51;;;;;;;2.85;1.95;;;7.90;58.50;;;;;;5073615;28;20028;-76
2023/11/09 04:21:16;;;;;;;3.00;2.17;;;7.90;58.30;;;;;;5073717;28;20033;-75
2023/11/09 04:23:42;;;;;;;4.90;1.90;;;7.90;57.90;;;;;;5073189;28;20016;-76
2023/11/09 04:26:08;;;;;;;2.78;1.73;;;8.00;58.40;;;;;;5072279;28;20112;-75
2023/11/09 04:28:35;;;;;;;3.97;1.65;;;8.00;57.90;;;;;;5073354;28;20102;-76
2023/11/09 04:31:00;;;;;;;2.50;1.65;;;8.00;57.60;;;;;;5073602;28;20448;-75
2023/11/09 04:33:27;;;;;;;2.72;1.42;;;8.00;57.00;;;;;;5073575;28;20055;-74
2023/11/09 04:35:55;;;;;;;3.05;1.70;;;8.00;56.00;;;;;;5073467;28;20120;-75
2023/11/09 04:38:24;;;;;;;4.10;1.80;;;8.00;55.60;;;;;;5071954;28;20029;-75
2023/11/09 04:41:05;;;;;;;2.90;1.55;;;8.10;56.00;;;;;;5073396;28;20028;-75
2023/11/09 04:43:31;;;;;;;2.92;1.60;;;8.10;56.00;;;;;;5073265;28;20048;-76
2023/11/09 04:46:05;;;;;;;3.55;1.75;;;8.20;55.30;;;;;;5073390;28;20086;-75
2023/11/09 04:48:31;;;;;;;2.08;1.30;;;8.10;55.80;;;;;;5073128;28;20512;-74
2023/11/09 04:51:06;;;;;;;3.15;1.80;;;8.10;55.60;;;;;;5073351;28;20034;-76
2023/11/09 04:53:39;;;;;;;3.33;1.55;;;8.20;55.80;;;;;;5074102;28;20471;-76
2023/11/09 04:56:19;;;;;;;3.22;1.80;;;8.10;56.50;;;;;;5073186;28;20027;-76
2023/11/09 04:58:50;;;;;;;2.70;1.77;;;8.00;56.60;;;;;;5073022;28;20033;-75
2023/11/09 05:06:55;;;;;;;3.33;1.60;;;8.00;57.30;;;;;;5074890;28;20508;-76
2023/11/09 05:09:23;;;;;;;2.88;1.98;;;7.90;57.10;;;;;;5072361;28;20473;-75
2023/11/09 05:11:50;;;;;;;3.00;1.70;;;7.90;57.30;;;;;;5073077;28;20515;-76
2023/11/09 05:14:16;;;;;;;4.03;1.90;;;7.90;57.90;;;;;;5079686;28;20056;-76
2023/11/09 05:16:42;;;;;;;2.42;1.38;;;7.80;57.50;;;;;;5082890;28;20032;-75
2023/11/09 05:19:09;;;;;;;2.92;1.70;;;7.80;57.70;;;;;;5072812;28;20051;-76
2023/11/09 05:21:34;;;;;;;4.53;1.58;;;7.80;56.80;;;;;;5072950;28;20024;-76
2023/11/09 05:24:00;;;;;;;3.97;1.60;;;7.90;56.80;;;;;;5072866;28;20016;-76
2023/11/09 05:26:26;;;;;;;2.90;1.40;;;7.90;56.50;;;;;;5072797;28;20024;-76
2023/11/09 05:28:53;;;;;;;3.17;1.60;;;7.90;55.60;;;;;;5072649;28;20082;-76
2023/11/09 05:31:24;;;;;;;3.13;1.30;;;7.90;55.50;;;;;;5073130;28;20461;-76
2023/11/09 05:33:52;;;;;;;2.25;1.55;;;8.00;54.70;;;;;;5073011;28;20112;-76
2023/11/09 05:36:18;;;;;;;1.67;1.23;;;8.00;54.60;;;;;;5075777;28;20100;-76
2023/11/09 05:38:44;;;;;;;2.63;1.45;;;8.10;53.90;;;;;;5077022;28;20148;-76
2023/11/09 05:41:10;;;;;;;2.53;1.13;;;8.10;53.50;;;;;;5077001;28;20024;-76
2023/11/09 05:43:36;;;;;;;2.60;1.15;;;8.20;52.50;;;;;;5076913;28;20021;-75
2023/11/09 05:46:01;;;;;;;2.88;1.52;;;8.30;52.30;;;;;;5076947;28;20385;-76
2023/11/09 05:48:27;;;;;;;1.88;1.50;;;8.30;52.60;;;;;;5076729;28;20036;-75
2023/11/09 05:50:54;;;;;;;2.55;1.42;;;8.30;52.40;;;;;;5076700;28;20024;-76
2023/11/09 05:53:20;;;;;;;2.60;1.40;;;8.40;52.50;;;;;;5076851;28;20048;-75
2023/11/09 05:55:46;;;;;;;3.22;1.40;;;8.30;52.70;;;;;;5076657;28;20086;-75
2023/11/09 05:58:12;;;;;;;2.63;1.60;;;8.30;52.10;;;;;;5076472;28;20052;-76
2023/11/09 06:00:39;;;;;;;3.47;1.45;;;8.30;52.00;;;;;;5076614;28;20071;-75
2023/11/09 06:03:05;;;;;;;2.00;1.15;;;8.40;51.40;;;;;;5075153;28;20020;-75
2023/11/09 06:05:30;;;;;;;2.53;1.17;;;8.40;50.80;;;;;;5076457;28;20119;-75
2023/11/09 06:07:59;;;;;;;0.90;0.90;;;8.50;51.00;;;;;;5076608;28;20456;-77
2023/11/09 06:10:29;;;;;;;2.15;1.20;;;8.50;50.80;;;;;;5075285;28;20070;-76
2023/11/09 06:12:55;;;;;;;2.50;1.30;;;8.50;51.10;;;;;;5076338;28;20025;-75
2023/11/09 06:15:21;;;;;;;3.45;1.38;;;8.40;51.90;;;;;;5076240;28;20020;-76
2023/11/09 06:17:47;;;;;;;2.35;1.38;;;8.40;51.60;;;;;;5076306;28;20048;-76
2023/11/09 06:20:17;;;;;;;1.83;1.20;;;8.50;51.60;;;;;;5076169;28;20032;-77
2023/11/09 06:22:43;;;;;;;3.25;1.38;;;8.40;51.60;;;;;;5076345;28;20016;-77
2023/11/09 06:25:10;;;;;;;1.90;1.10;;;8.40;51.50;;;;;;5076268;28;20024;-78
2023/11/09 06:27:36;;;;;;;4.00;1.52;;;8.40;51.30;;;;;;5075949;28;20044;-76
2023/11/09 06:30:04;;;;;;;1.80;0.95;;;8.30;52.00;;;;;;5077753;28;20036;-77
2023/11/09 06:32:30;;;;;;;3.17;1.30;;;8.30;52.70;;;;;;5096260;28;20031;-76
2023/11/09 06:34:57;;;;;;;2.75;1.30;;;8.30;52.90;;;;;;5096807;28;20024;-77
2023/11/09 06:37:24;;;;;;;3.90;1.58;;;8.30;53.70;;;;;;5097815;28;20072;-77
2023/11/09 06:39:50;;;;;;;3.55;1.67;;;8.20;53.70;;;;;;5100153;28;20024;-79
2023/11/09 06:42:17;;;;;;;2.97;1.67;;;8.20;54.50;;;;;;5101765;28;20026;-79
2023/11/09 06:44:45;;;;;;;4.10;1.40;;;8.10;55.20;;;;;;5096783;28;20024;-79
2023/11/09 06:47:11;;;;;;;3.15;1.63;;;8.10;54.80;;;;;;5096041;28;20016;-77
2023/11/09 06:49:37;;;;;;;1.85;1.00;;;8.20;53.80;;;;;;5097006;28;20085;-79
2023/11/09 06:52:06;;;;;;;2.75;1.40;;;8.30;52.60;;;;;;5094754;28;20017;-78
2023/11/09 06:54:34;;;;;;;2.97;1.40;;;8.40;50.90;;;;;;5095722;28;20020;-78
2023/11/09 06:57:00;;;;;;;5.82;1.10;;;8.50;50.90;;;;;;5095928;28;20024;-78
2023/11/09 06:59:26;;;;;;;1.67;1.45;;;8.50;51.30;;;;;;5095605;28;20109;-76
2023/11/09 07:01:53;;;;;;;4.38;1.60;;;8.60;51.20;;;;;;5095608;28;20062;-76
2023/11/09 07:04:18;;;;;;;2.17;1.55;;;8.60;50.80;;;;;;5095573;28;20021;-79
2023/11/09 07:06:45;;;;;;;2.55;1.48;;;8.70;51.10;;;;;;5095628;28;20031;-75
2023/11/09 07:09:12;;;;;;;3.83;1.45;;;8.70;51.00;;;;;;5094360;28;20047;-75
2023/11/09 07:11:38;;;;;;;2.88;1.20;;;8.70;51.50;;;;;;5095630;28;20012;-77
2023/11/09 07:14:04;;;;;;;6.35;1.60;;;8.70;51.10;;;;;;5101297;28;20039;-77
2023/11/09 07:16:30;;;;;;;3.72;1.83;;;8.70;51.80;;;;;;5095536;28;20023;-77
2023/11/09 07:18:56;;;;;;;5.20;1.88;;;8.60;52.00;;;;;;5095215;28;20020;-76
2023/11/09 07:21:22;;;;;;;2.97;1.65;;;8.70;52.40;;;;;;5095323;28;20020;-76
2023/11/09 07:23:48;;;;;;;4.25;2.30;;;8.60;52.70;;;;;;5095454;28;20095;-77
2023/11/09 07:26:14;;;;;;;3.17;2.20;;;8.60;52.90;;;;;;5095359;28;20032;-77
2023/11/09 07:28:41;;;;;;;5.97;2.33;;;8.50;53.30;;;;;;5093652;28;20048;-76
2023/11/09 07:31:06;;;;;;;4.30;1.70;;;8.50;54.10;;;;;;5095207;28;20026;-76
2023/11/09 07:33:32;;;;;;;3.55;2.22;;;8.40;54.60;;;;;;5094472;28;20107;-76
2023/11/09 07:35:59;;;;;;;2.85;1.90;;;8.30;55.00;;;;;;5094838;28;20020;-76
2023/11/09 07:38:26;;;;;;;4.00;2.58;;;8.30;56.40;;;;;;5094776;28;20024;-76
2023/11/09 07:40:51;;;;;;;3.75;1.95;;;8.20;56.90;;;;;;5093453;28;20024;-76
2023/11/09 07:43:18;;;;;;;3.65;1.88;;;8.10;57.80;;;;;;5094645;28;20031;-76
2023/11/09 07:45:44;;;;;;;2.75;2.20;;;8.00;58.40;;;;;;5094826;28;20028;-76
2023/11/09 07:48:10;;;;;;;8.85;2.65;;;8.00;58.60;;;;;;5094951;28;20024;-76
2023/11/09 07:50:36;;;;;;;3.53;2.22;;;7.90;59.40;;;;;;5094647;28;20024;-76
2023/11/09 07:53:01;;;;;;;3.65;2.40;;;7.90;59.30;;;;;;5094626;28;20028;-76
2023/11/09 07:55:30;;;;;;;2.67;2.13;;;7.90;59.00;;;;;;5094809;28;20380;-77
2023/11/09 07:58:03;;;;;;;4.50;2.20;;;7.90;59.30;;;;;;5092554;28;20045;-77
2023/11/09 08:00:29;;;;;;;3.65;2.47;;;8.00;58.50;;;;;;5094952;28;20092;-77
2023/11/09 08:02:57;;;;;;;3.70;2.38;;;8.00;59.40;;;;;;5094900;28;20081;-77
2023/11/09 08:05:25;;;;;;;3.72;1.90;;;8.00;59.80;;;;;;5099672;28;20457;-77
2023/11/09 08:07:53;;;;;;;3.97;1.90;;;8.10;59.50;;;;;;5097574;28;20024;-78
2023/11/09 08:10:19;;;;;;;3.05;1.38;;;8.20;58.80;;;;;;5094002;28;20031;-75
2023/11/09 08:12:45;;;;;;;3.13;1.30;;;8.40;59.10;;;;;;5093927;28;20103;-75
2023/11/09 08:15:13;;;;;;;1.58;1.10;;;8.60;58.90;;;;;;5093978;28;20052;-75
2023/11/09 08:17:43;;;;;;;1.55;0.95;;;8.70;59.20;;;;;;5094084;28;20496;-75
2023/11/09 08:20:13;;;;;;;4.03;1.27;;;8.80;58.70;;;;;;5093779;28;20031;-76
2023/11/09 08:22:41;;;;;;;2.85;1.52;;;8.90;58.80;;;;;;5093878;28;20035;-76
2023/11/09 08:25:06;;;;;;;2.33;1.20;;;8.90;59.10;;;;;;5093881;28;20107;-76
2023/11/09 08:27:32;;;;;;;2.42;0.90;;;8.90;60.10;;;;;;5093665;28;20111;-76
2023/11/09 08:29:58;;;;;;;1.90;1.13;;;8.90;60.20;;;;;;5093878;28;20492;-76
2023/11/09 08:32:25;;;;;;;4.63;1.35;;;8.90;60.40;;;;;;5092473;28;20031;-77
2023/11/09 08:34:52;;;;;;;3.05;1.10;;;8.80;62.20;;;;;;5092440;28;20028;-75
2023/11/09 08:37:17;;;;;;;0.80;0.65;;;8.70;61.70;;;;;;5093689;28;20012;-76
2023/11/09 08:39:43;;;;;;;2.78;1.10;;;8.80;62.00;;;;;;5093612;28;20039;-76
2023/11/09 08:42:09;;;;;;;3.72;1.13;;;8.70;63.10;;;;;;5093648;28;20026;-76
2023/11/09 08:44:36;;;;;;;1.55;0.88;;;8.70;62.30;;;;;;5093740;28;20028;-76
2023/11/09 08:47:01;;;;;;;2.75;0.65;;;8.80;62.40;;;;;;5093793;28;20020;-77
2023/11/09 08:49:27;;;;;;;7.03;1.33;;;8.70;61.60;;;;;;5093618;28;20028;-77
2023/11/09 08:51:53;;;;;;;1.45;0.68;;;8.80;62.00;;;;;;5093450;28;20035;-78
2023/11/09 08:54:19;;;;;;;3.85;0.77;;;8.90;62.10;;;;;;5093457;28;20028;-76
2023/11/09 08:56:46;;;;;;;1.00;0.80;;;8.90;61.70;;;;;;5093443;28;20024;-76
2023/11/09 08:59:11;;;;;;;1.10;0.77;;;8.90;62.50;;;;;;5093240;28;20028;-75
2023/11/09 09:01:37;;;;;;;1.92;0.88;;;9.00;62.50;;;;;;5093187;28;20031;-84
2023/11/09 09:04:03;;;;;;;2.40;0.73;;;9.00;62.50;;;;;;5093269;28;20360;-72
2023/11/09 09:06:30;;;;;;;1.55;0.90;;;9.10;62.70;;;;;;5093099;28;20118;-73
2023/11/09 09:08:56;;;;;;;2.17;0.77;;;9.10;61.80;;;;;;5092845;28;20016;-73
2023/11/09 09:11:22;;;;;;;0.95;0.57;;;9.10;62.50;;;;;;5092925;28;20061;-73
2023/11/09 09:13:47;;;;;;;1.52;0.70;;;9.20;61.80;;;;;;5093007;28;20031;-75
2023/11/09 09:16:15;;;;;;;1.63;0.77;;;9.20;62.10;;;;;;5092856;28;20030;-74
2023/11/09 09:18:42;;;;;;;1.50;0.50;;;9.20;62.50;;;;;;5092935;28;20027;-74
2023/11/09 09:21:08;;;;;;;0.80;0.57;;;9.40;63.10;;;;;;5092981;28;20471;-74
2023/11/09 09:23:38;;;;;;;2.45;0.77;;;9.40;62.10;;;;;;5093031;28;20032;-74
2023/11/09 09:26:04;;;;;;;2.00;0.70;;;9.40;62.40;;;;;;5092999;28;20032;-74
2023/11/09 09:28:29;;;;;;;0.70;0.60;;;9.40;62.50;;;;;;5092717;28;20143;-73
2023/11/09 09:30:55;;;;;;;0.50;0.47;;;9.40;63.00;;;;;;5092836;28;20155;-74
2023/11/09 09:33:20;;;;;;;1.63;0.77;;;9.40;63.40;;;;;;5092140;28;20080;-73
2023/11/09 09:35:47;;;;;;;1.35;0.80;;;9.40;63.80;;;;;;5091311;28;20056;-73
2023/11/09 09:38:15;;;;;;;1.35;0.70;;;9.40;63.80;;;;;;5092301;28;20023;-74
2023/11/09 09:40:41;;;;;;;0.70;0.40;;;9.50;63.80;;;;;;5092679;28;20353;-77
2023/11/09 09:43:08;;;;;;;2.42;0.63;;;9.60;64.10;;;;;;5093066;28;20016;-79
2023/11/09 09:45:34;;;;;;;0.50;0.50;;;9.70;63.90;;;;;;5091788;28;20028;-79
2023/11/09 09:48:01;;;;;;;2.35;0.60;;;9.80;63.40;;;;;;5091926;28;20030;-79
2023/11/09 09:50:40;;;;;;;1.02;0.40;;;9.90;63.20;;;;;;5093265;28;20024;-80
2023/11/09 09:53:09;;;;;;;1.20;0.50;;;9.90;63.80;;;;;;5092091;28;20020;-79
2023/11/09 09:55:36;;;;;;;0.73;0.30;;;10.00;63.50;;;;;;5093092;28;20028;-79
2023/11/09 09:58:03;;;;;;;0.50;0.40;;;9.90;63.50;;;;;;5093067;28;20483;-79
2023/11/09 10:00:31;;;;;;;0.40;0.40;;;10.00;64.30;;;;;;5092214;28;20188;-76
2023/11/09 10:02:57;;;;;;;0.85;0.52;;;10.00;63.60;;;;;;5092824;28;20065;-78
2023/11/09 10:05:24;;;;;;;0.55;0.30;;;9.90;64.00;;;;;;5092808;28;20016;-77
2023/11/09 10:08:20;;;;;;;2.85;0.40;;;9.90;64.80;;;;;;5092549;28;20080;-76
2023/11/09 10:10:52;;;;;;;4.05;0.90;;;9.90;64.30;;;;;;5092695;28;20357;-77
2023/11/09 10:13:20;;;;;;;0.32;0.32;;;9.90;64.00;;;;;;5092787;28;20020;-76
2023/11/09 10:15:55;;;;;;;0.90;0.52;;;10.00;64.10;;;;;;5092375;28;20031;-76
2023/11/09 10:18:25;;;;;;;1.02;0.50;;;10.10;63.10;;;;;;5091163;28;20625;-76
2023/11/09 10:20:55;;;;;;;3.63;0.77;;;10.10;62.90;;;;;;5092469;28;20032;-76
2023/11/09 10:23:21;;;;;;;0.82;0.40;;;10.20;63.20;;;;;;5096261;28;20012;-76
2023/11/09 10:25:47;;;;;;;0.57;0.40;;;10.30;62.20;;;;;;5096047;28;20027;-77
2023/11/09 10:28:14;;;;;;;0.90;0.50;;;10.30;62.60;;;;;;5096012;28;20419;-79
2023/11/09 10:30:44;;;;;;;0.57;0.50;;;10.40;61.60;;;;;;5096160;28;20525;-77
2023/11/09 10:33:11;;;;;;;1.52;0.50;;;10.40;61.70;;;;;;5096595;28;20035;-84
2023/11/09 10:35:38;;;;;;;2.38;0.30;;;10.50;61.80;;;;;;5096362;28;20035;-78
2023/11/09 10:38:09;;;;;;;0.73;0.50;;;10.50;60.80;;;;;;5095868;28;20020;-78
2023/11/09 10:40:36;;;;;;;2.67;0.70;;;10.60;60.80;;;;;;5096089;28;20388;-78
2023/11/09 10:43:04;;;;;;;0.52;0.40;;;10.90;60.60;;;;;;5096041;28;20023;-79
2023/11/09 10:45:36;;;;;;;1.10;0.50;;;11.10;59.90;;;;;;5095993;28;20016;-77
2023/11/09 10:48:07;;;;;;;1.48;0.47;;;11.10;59.80;;;;;;5094648;28;20039;-77
2023/11/09 10:50:34;;;;;;;1.42;0.60;;;11.20;59.30;;;;;;5095670;28;20377;-78
2023/11/09 10:53:03;;;;;;;1.48;0.47;;;11.00;59.70;;;;;;5095677;28;20090;-77
2023/11/09 10:55:30;;;;;;;1.70;0.50;;;10.90;60.00;;;;;;5093891;28;20028;-78
2023/11/09 10:58:05;;;;;;;1.05;0.30;;;10.90;60.30;;;;;;5095797;28;20496;-78
2023/11/09 11:00:42;;;;;;;0.35;0.30;;;10.80;60.40;;;;;;5095604;28;20034;-76
2023/11/09 11:03:16;;;;;;;0.45;0.28;;;10.90;60.10;;;;;;5095211;28;20099;-77
2023/11/09 11:05:47;;;;;;;1.25;0.45;;;10.90;60.30;;;;;;5094073;28;20024;-77
2023/11/09 11:08:15;;;;;;;0.82;0.47;;;10.80;60.00;;;;;;5095456;28;20016;-78
2023/11/09 11:10:46;;;;;;;0.75;0.50;;;10.80;60.40;;;;;;5095111;28;20020;-77
2023/11/09 11:13:16;;;;;;;0.82;0.55;;;10.90;61.20;;;;;;5095194;28;20095;-78
2023/11/09 11:16:05;;;;;;;1.00;0.40;;;10.90;60.70;;;;;;5094970;28;20400;-78
2023/11/09 11:18:42;;;;;;;1.95;0.63;;;10.80;60.40;;;;;;5095361;28;20115;-77
2023/11/09 11:21:31;;;;;;;0.80;0.50;;;10.80;60.70;;;;;;5095509;28;20048;-77
2023/11/09 11:24:37;;;;;;;4.22;0.50;;;10.90;61.00;;;;;;5098992;28;20052;-78
2023/11/09 11:27:16;;;;;;;0.75;0.47;;;10.90;60.60;;;;;;5095886;28;20031;-77
2023/11/09 11:29:42;;;;;;;2.13;0.70;;;10.90;61.20;;;;;;5095338;28;20024;-80
2023/11/09 11:32:09;;;;;;;3.22;0.80;;;10.90;60.40;;;;;;5095177;28;20024;-79
2023/11/09 11:35:01;;;;;;;1.05;0.40;;;11.00;60.10;;;;;;5095186;28;20463;-79
2023/11/09 11:37:30;;;;;;;1.02;0.43;;;11.00;60.30;;;;;;5091092;28;20130;-78
2023/11/09 11:39:59;;;;;;;0.98;0.40;;;10.90;59.80;;;;;;5095666;28;20090;-79
2023/11/09 11:42:27;;;;;;;0.85;0.70;;;11.00;60.00;;;;;;5095175;28;20024;-79
2023/11/09 11:44:59;;;;;;;1.80;0.50;;;11.10;59.60;;;;;;5095164;28;20099;-79
2023/11/09 11:47:27;;;;;;;2.55;0.88;;;11.10;59.90;;;;;;5094909;28;20107;-79
2023/11/09 11:50:00;;;;;;;0.60;0.55;;;11.40;59.40;;;;;;5094898;28;20039;-80
2023/11/09 11:52:30;;;;;;;1.20;0.50;;;11.70;57.80;;;;;;5095262;28;20372;-79
2023/11/09 11:55:04;;;;;;;1.38;0.70;;;11.70;57.10;;;;;;5094955;28;20020;-80
2023/11/09 11:57:34;;;;;;;2.08;1.05;;;12.10;56.90;;;;;;5094831;28;20530;-79
2023/11/09 12:00:09;;;;;;;1.83;0.55;;;12.40;55.20;;;;;;5094464;28;20484;-78
2023/11/09 12:02:39;;;;;;;0.77;0.50;;;12.60;54.40;;;;;;5093365;28;20122;-80
2023/11/09 12:05:07;;;;;;;1.23;0.43;;;12.90;53.40;;;;;;5095136;28;20032;-79
2023/11/09 12:07:37;;;;;;;1.52;0.40;;;13.00;52.80;;;;;;5095369;28;20020;-80
2023/11/09 12:10:05;;;;;;;0.90;0.40;;;13.20;51.50;;;;;;5097218;28;20069;-80
2023/11/09 12:12:34;;;;;;;0.90;0.40;;;13.30;51.40;;;;;;5100439;28;20544;-79
2023/11/09 12:15:01;;;;;;;2.38;0.63;;;13.30;51.20;;;;;;5093850;28;20020;-79
2023/11/09 12:17:26;;;;;;;0.70;0.50;;;12.80;52.60;;;;;;5094188;28;20039;-79
2023/11/09 12:19:53;;;;;;;0.68;0.32;;;12.90;52.80;;;;;;5094138;28;20502;-79
2023/11/09 12:22:19;;;;;;;0.73;0.63;;;12.60;53.20;;;;;;5094133;28;20093;-79
2023/11/09 12:24:44;;;;;;;0.85;0.60;;;12.30;54.70;;;;;;5094142;28;20034;-80
2023/11/09 12:27:10;;;;;;;0.50;0.50;;;12.00;55.60;;;;;;5094000;28;20099;-80
2023/11/09 12:29:41;;;;;;;1.58;0.60;;;11.70;57.00;;;;;;5093752;28;20047;-78
2023/11/09 12:32:08;;;;;;;0.35;0.30;;;11.60;57.30;;;;;;5092771;28;20119;-79
2023/11/09 12:34:37;;;;;;;2.88;0.60;;;11.60;57.80;;;;;;5093861;28;20020;-80
2023/11/09 12:37:03;;;;;;;1.77;0.70;;;11.60;58.50;;;;;;5093620;28;20048;-79
2023/11/09 12:39:30;;;;;;;1.48;0.40;;;11.60;58.50;;;;;;5093363;28;20039;-79
2023/11/09 12:42:00;;;;;;;0.40;0.40;;;11.60;58.50;;;;;;5093445;28;20107;-79
2023/11/09 12:44:31;;;;;;;0.65;0.50;;;11.50;59.00;;;;;;5093251;28;20024;-78
2023/11/09 12:47:20;;;;;;;2.25;0.40;;;11.40;59.40;;;;;;5092199;28;20468;-79
2023/11/09 12:49:52;;;;;;;0.52;0.50;;;11.30;59.30;;;;;;5094029;28;20475;-79
2023/11/09 12:52:21;;;;;;;1.17;0.50;;;11.30;59.50;;;;;;5093874;28;20024;-78
2023/11/09 12:54:47;;;;;;;0.85;0.40;;;11.20;59.40;;;;;;5093546;28;20016;-79
2023/11/09 12:57:17;;;;;;;1.33;0.73;;;11.20;59.80;;;;;;5093416;28;20032;-79
2023/11/09 12:59:45;;;;;;;2.65;0.60;;;11.10;60.50;;;;;;5093336;28;20036;-80
2023/11/09 13:02:32;;;;;;;1.05;0.50;;;11.20;60.50;;;;;;5093412;28;20016;-80